sensor_id;sensor_type;location;lat;lon;timestamp;P1;durP1;ratioP1;P2;durP2;ratioP2
20695;SDS011;10507;52.754;13.040;2023-11-19T00:00:07;11.97;;;8.40;;
20695;SDS011;10507;52.754;13.040;2023-11-19T00:02:41;16.63;;;8.23;;
20695;SDS011;10507;52.754;13.040;2023-11-19T00:05:42;12.60;;;8.37;;
20695;SDS011;10507;52.754;13.040;2023-11-19T00:08:12;11.87;;;8.20;;
20695;SDS011;10507;52.754;13.040;2023-11-19T00:10:48;13.53;;;8.57;;
20695;SDS011;10507;52.754;13.040;2023-11-19T00:13:17;14.03;;;8.23;;
20695;SDS011;10507;52.754;13.040;2023-11-19T00:15:50;12.07;;;7.83;;
20695;SDS011;10507;52.754;13.040;2023-11-19T00:18:22;12.83;;;8.33;;
20695;SDS011;10507;52.754;13.040;2023-11-19T00:20:51;12.03;;;8.17;;
20695;SDS011;10507;52.754;13.040;2023-11-19T00:23:19;12.23;;;8.17;;
20695;SDS011;10507;52.754;13.040;2023-11-19T00:25:47;13.47;;;9.07;;
20695;SDS011;10507;52.754;13.040;2023-11-19T00:28:17;13.00;;;8.43;;
20695;SDS011;10507;52.754;13.040;2023-11-19T00:30:46;10.60;;;7.77;;
20695;SDS011;10507;52.754;13.040;2023-11-19T00:33:16;11.40;;;7.93;;
20695;SDS011;10507;52.754;13.040;2023-11-19T00:35:49;15.33;;;8.07;;
20695;SDS011;10507;52.754;13.040;2023-11-19T00:38:18;13.03;;;8.80;;
20695;SDS011;10507;52.754;13.040;2023-11-19T00:40:46;12.20;;;8.37;;
20695;SDS011;10507;52.754;13.040;2023-11-19T00:43:16;12.80;;;8.57;;
20695;SDS011;10507;52.754;13.040;2023-11-19T00:45:48;11.57;;;8.23;;
20695;SDS011;10507;52.754;13.040;2023-11-19T00:48:20;12.77;;;8.10;;
20695;SDS011;10507;52.754;13.040;2023-11-19T00:50:49;10.70;;;7.67;;
20695;SDS011;10507;52.754;13.040;2023-11-19T00:53:21;13.97;;;8.27;;
20695;SDS011;10507;52.754;13.040;2023-11-19T00:55:55;11.97;;;8.70;;
20695;SDS011;10507;52.754;13.040;2023-11-19T00:58:31;13.43;;;8.80;;
20695;SDS011;10507;52.754;13.040;2023-11-19T01:01:06;14.03;;;8.27;;
20695;SDS011;10507;52.754;13.040;2023-11-19T01:03:37;11.93;;;7.23;;
20695;SDS011;10507;52.754;13.040;2023-11-19T01:06:12;13.83;;;8.87;;
20695;SDS011;10507;52.754;13.040;2023-11-19T01:08:48;15.33;;;8.10;;
20695;SDS011;10507;52.754;13.040;2023-11-19T01:11:21;10.50;;;7.40;;
20695;SDS011;10507;52.754;13.040;2023-11-19T01:13:53;11.40;;;7.70;;
20695;SDS011;10507;52.754;13.040;2023-11-19T01:16:23;12.83;;;7.67;;
20695;SDS011;10507;52.754;13.040;2023-11-19T01:18:55;9.97;;;7.00;;
20695;SDS011;10507;52.754;13.040;2023-11-19T01:21:43;9.93;;;7.13;;
20695;SDS011;10507;52.754;13.040;2023-11-19T01:24:13;12.07;;;7.80;;
20695;SDS011;10507;52.754;13.040;2023-11-19T01:26:43;11.17;;;7.63;;
20695;SDS011;10507;52.754;13.040;2023-11-19T01:29:19;12.47;;;7.93;;
20695;SDS011;10507;52.754;13.040;2023-11-19T01:31:52;10.93;;;7.57;;
20695;SDS011;10507;52.754;13.040;2023-11-19T01:34:32;10.87;;;7.13;;
20695;SDS011;10507;52.754;13.040;2023-11-19T01:37:07;11.67;;;7.13;;
20695;SDS011;10507;52.754;13.040;2023-11-19T01:39:43;10.97;;;6.80;;
20695;SDS011;10507;52.754;13.040;2023-11-19T01:42:21;8.33;;;6.07;;
20695;SDS011;10507;52.754;13.040;2023-11-19T01:45:05;9.23;;;6.40;;
20695;SDS011;10507;52.754;13.040;2023-11-19T01:47:38;8.50;;;6.33;;
20695;SDS011;10507;52.754;13.040;2023-11-19T01:50:10;10.33;;;6.20;;
20695;SDS011;10507;52.754;13.040;2023-11-19T01:52:44;9.70;;;5.73;;
20695;SDS011;10507;52.754;13.040;2023-11-19T01:55:16;7.47;;;5.70;;
20695;SDS011;10507;52.754;13.040;2023-11-19T01:57:50;7.70;;;5.50;;
20695;SDS011;10507;52.754;13.040;2023-11-19T02:00:23;8.47;;;5.40;;
20695;SDS011;10507;52.754;13.040;2023-11-19T02:02:58;9.67;;;5.37;;
20695;SDS011;10507;52.754;13.040;2023-11-19T02:05:39;7.63;;;5.13;;
20695;SDS011;10507;52.754;13.040;2023-11-19T02:08:09;7.73;;;5.57;;
20695;SDS011;10507;52.754;13.040;2023-11-19T02:10:46;9.23;;;6.20;;
20695;SDS011;10507;52.754;13.040;2023-11-19T02:13:22;8.67;;;5.97;;
20695;SDS011;10507;52.754;13.040;2023-11-19T02:16:05;10.03;;;5.67;;
20695;SDS011;10507;52.754;13.040;2023-11-19T02:18:39;7.47;;;5.17;;
20695;SDS011;10507;52.754;13.040;2023-11-19T02:21:13;7.43;;;4.90;;
20695;SDS011;10507;52.754;13.040;2023-11-19T02:23:44;9.43;;;4.90;;
20695;SDS011;10507;52.754;13.040;2023-11-19T02:26:17;7.63;;;5.40;;
20695;SDS011;10507;52.754;13.040;2023-11-19T02:28:59;6.97;;;4.83;;
20695;SDS011;10507;52.754;13.040;2023-11-19T02:31:34;7.33;;;5.27;;
20695;SDS011;10507;52.754;13.040;2023-11-19T02:34:04;9.13;;;5.43;;
20695;SDS011;10507;52.754;13.040;2023-11-19T02:36:38;9.80;;;5.43;;
20695;SDS011;10507;52.754;13.040;2023-11-19T02:39:08;7.47;;;5.33;;
20695;SDS011;10507;52.754;13.040;2023-11-19T02:41:42;9.30;;;5.40;;
20695;SDS011;10507;52.754;13.040;2023-11-19T02:44:15;6.93;;;4.87;;
20695;SDS011;10507;52.754;13.040;2023-11-19T02:46:47;7.60;;;5.00;;
20695;SDS011;10507;52.754;13.040;2023-11-19T02:49:17;7.57;;;5.33;;
20695;SDS011;10507;52.754;13.040;2023-11-19T02:51:56;8.17;;;5.20;;
20695;SDS011;10507;52.754;13.040;2023-11-19T02:54:33;9.40;;;5.70;;
20695;SDS011;10507;52.754;13.040;2023-11-19T02:57:02;9.10;;;5.67;;
20695;SDS011;10507;52.754;13.040;2023-11-19T02:59:37;7.57;;;5.00;;
20695;SDS011;10507;52.754;13.040;2023-11-19T03:02:11;11.10;;;5.70;;
20695;SDS011;10507;52.754;13.040;2023-11-19T03:04:42;7.90;;;4.60;;
20695;SDS011;10507;52.754;13.040;2023-11-19T03:07:15;8.93;;;5.40;;
20695;SDS011;10507;52.754;13.040;2023-11-19T03:09:44;9.00;;;5.90;;
20695;SDS011;10507;52.754;13.040;2023-11-19T03:12:16;8.23;;;5.47;;
20695;SDS011;10507;52.754;13.040;2023-11-19T03:14:50;9.60;;;5.33;;
20695;SDS011;10507;52.754;13.040;2023-11-19T03:17:28;9.30;;;5.70;;
20695;SDS011;10507;52.754;13.040;2023-11-19T03:20:01;9.20;;;6.20;;
20695;SDS011;10507;52.754;13.040;2023-11-19T03:22:33;9.33;;;6.00;;
20695;SDS011;10507;52.754;13.040;2023-11-19T03:25:09;12.63;;;6.03;;
20695;SDS011;10507;52.754;13.040;2023-11-19T03:27:48;9.10;;;6.07;;
20695;SDS011;10507;52.754;13.040;2023-11-19T03:30:25;7.83;;;6.00;;
20695;SDS011;10507;52.754;13.040;2023-11-19T03:33:19;10.77;;;6.23;;
20695;SDS011;10507;52.754;13.040;2023-11-19T03:35:52;8.43;;;5.60;;
20695;SDS011;10507;52.754;13.040;2023-11-19T03:38:23;9.27;;;6.17;;
20695;SDS011;10507;52.754;13.040;2023-11-19T03:40:54;10.33;;;6.10;;
20695;SDS011;10507;52.754;13.040;2023-11-19T03:43:24;8.13;;;5.87;;
20695;SDS011;10507;52.754;13.040;2023-11-19T03:45:55;9.47;;;5.77;;
20695;SDS011;10507;52.754;13.040;2023-11-19T03:48:24;8.10;;;5.83;;
20695;SDS011;10507;52.754;13.040;2023-11-19T03:50:56;8.33;;;5.60;;
20695;SDS011;10507;52.754;13.040;2023-11-19T03:53:26;9.63;;;5.80;;
20695;SDS011;10507;52.754;13.040;2023-11-19T03:56:00;8.73;;;5.90;;
20695;SDS011;10507;52.754;13.040;2023-11-19T03:58:28;9.90;;;6.27;;
20695;SDS011;10507;52.754;13.040;2023-11-19T04:01:01;8.77;;;5.93;;
20695;SDS011;10507;52.754;13.040;2023-11-19T04:03:34;8.13;;;6.23;;
20695;SDS011;10507;52.754;13.040;2023-11-19T04:06:16;8.20;;;5.97;;
20695;SDS011;10507;52.754;13.040;2023-11-19T04:08:45;10.83;;;6.50;;
20695;SDS011;10507;52.754;13.040;2023-11-19T04:11:13;9.70;;;6.37;;
20695;SDS011;10507;52.754;13.040;2023-11-19T04:13:43;9.40;;;6.37;;
20695;SDS011;10507;52.754;13.040;2023-11-19T04:16:13;9.13;;;6.50;;
20695;SDS011;10507;52.754;13.040;2023-11-19T04:18:44;12.40;;;7.03;;
20695;SDS011;10507;52.754;13.040;2023-11-19T04:21:12;12.97;;;7.07;;
20695;SDS011;10507;52.754;13.040;2023-11-19T04:23:40;13.37;;;7.27;;
20695;SDS011;10507;52.754;13.040;2023-11-19T04:26:09;11.60;;;7.13;;
20695;SDS011;10507;52.754;13.040;2023-11-19T04:28:37;10.50;;;7.63;;
20695;SDS011;10507;52.754;13.040;2023-11-19T04:31:05;10.30;;;6.63;;
20695;SDS011;10507;52.754;13.040;2023-11-19T04:33:35;9.67;;;6.67;;
20695;SDS011;10507;52.754;13.040;2023-11-19T04:36:04;11.50;;;7.10;;
20695;SDS011;10507;52.754;13.040;2023-11-19T04:38:35;10.17;;;6.73;;
20695;SDS011;10507;52.754;13.040;2023-11-19T04:41:05;11.30;;;6.97;;
20695;SDS011;10507;52.754;13.040;2023-11-19T04:43:33;11.03;;;7.17;;
20695;SDS011;10507;52.754;13.040;2023-11-19T04:46:04;9.87;;;6.77;;
20695;SDS011;10507;52.754;13.040;2023-11-19T04:48:32;9.40;;;6.83;;
20695;SDS011;10507;52.754;13.040;2023-11-19T04:51:07;9.73;;;6.13;;
20695;SDS011;10507;52.754;13.040;2023-11-19T04:53:36;13.37;;;7.00;;
20695;SDS011;10507;52.754;13.040;2023-11-19T04:56:07;10.93;;;6.73;;
20695;SDS011;10507;52.754;13.040;2023-11-19T04:58:36;9.63;;;6.20;;
20695;SDS011;10507;52.754;13.040;2023-11-19T05:01:05;12.17;;;6.33;;
20695;SDS011;10507;52.754;13.040;2023-11-19T05:03:34;10.30;;;6.77;;
20695;SDS011;10507;52.754;13.040;2023-11-19T05:06:12;8.43;;;6.00;;
20695;SDS011;10507;52.754;13.040;2023-11-19T05:08:42;10.63;;;5.77;;
20695;SDS011;10507;52.754;13.040;2023-11-19T05:11:11;8.33;;;5.97;;
20695;SDS011;10507;52.754;13.040;2023-11-19T05:13:44;7.67;;;5.30;;
20695;SDS011;10507;52.754;13.040;2023-11-19T05:16:12;8.50;;;6.07;;
20695;SDS011;10507;52.754;13.040;2023-11-19T05:18:41;8.30;;;5.37;;
20695;SDS011;10507;52.754;13.040;2023-11-19T05:21:11;8.43;;;5.27;;
20695;SDS011;10507;52.754;13.040;2023-11-19T05:23:39;6.97;;;4.93;;
20695;SDS011;10507;52.754;13.040;2023-11-19T05:26:09;8.40;;;5.60;;
20695;SDS011;10507;52.754;13.040;2023-11-19T05:28:45;7.63;;;4.90;;
20695;SDS011;10507;52.754;13.040;2023-11-19T05:31:15;7.13;;;4.80;;
20695;SDS011;10507;52.754;13.040;2023-11-19T05:33:50;7.47;;;4.93;;
20695;SDS011;10507;52.754;13.040;2023-11-19T05:36:19;6.73;;;4.70;;
20695;SDS011;10507;52.754;13.040;2023-11-19T05:38:47;7.80;;;4.73;;
20695;SDS011;10507;52.754;13.040;2023-11-19T05:41:15;6.90;;;4.93;;
20695;SDS011;10507;52.754;13.040;2023-11-19T05:43:43;5.90;;;4.03;;
20695;SDS011;10507;52.754;13.040;2023-11-19T05:46:11;6.50;;;4.63;;
20695;SDS011;10507;52.754;13.040;2023-11-19T05:48:42;6.53;;;4.40;;
20695;SDS011;10507;52.754;13.040;2023-11-19T05:51:11;7.00;;;4.60;;
20695;SDS011;10507;52.754;13.040;2023-11-19T05:53:41;6.80;;;4.67;;
20695;SDS011;10507;52.754;13.040;2023-11-19T05:56:10;5.73;;;4.37;;
20695;SDS011;10507;52.754;13.040;2023-11-19T05:58:38;6.23;;;4.33;;
20695;SDS011;10507;52.754;13.040;2023-11-19T06:01:06;6.23;;;4.47;;
20695;SDS011;10507;52.754;13.040;2023-11-19T06:03:35;5.30;;;4.10;;
20695;SDS011;10507;52.754;13.040;2023-11-19T06:06:03;5.70;;;4.20;;
20695;SDS011;10507;52.754;13.040;2023-11-19T06:08:32;6.87;;;4.20;;
20695;SDS011;10507;52.754;13.040;2023-11-19T06:11:01;5.60;;;3.63;;
20695;SDS011;10507;52.754;13.040;2023-11-19T06:13:30;6.13;;;4.43;;
20695;SDS011;10507;52.754;13.040;2023-11-19T06:15:58;5.70;;;4.20;;
20695;SDS011;10507;52.754;13.040;2023-11-19T06:18:26;6.30;;;4.50;;
20695;SDS011;10507;52.754;13.040;2023-11-19T06:20:54;6.97;;;4.53;;
20695;SDS011;10507;52.754;13.040;2023-11-19T06:23:22;7.27;;;4.30;;
20695;SDS011;10507;52.754;13.040;2023-11-19T06:25:50;6.13;;;4.40;;
20695;SDS011;10507;52.754;13.040;2023-11-19T06:28:20;8.87;;;4.60;;
20695;SDS011;10507;52.754;13.040;2023-11-19T06:30:48;5.80;;;4.20;;
20695;SDS011;10507;52.754;13.040;2023-11-19T06:33:16;5.53;;;3.93;;
20695;SDS011;10507;52.754;13.040;2023-11-19T06:35:44;5.43;;;4.23;;
20695;SDS011;10507;52.754;13.040;2023-11-19T06:38:12;6.43;;;3.90;;
20695;SDS011;10507;52.754;13.040;2023-11-19T06:40:40;5.80;;;4.10;;
20695;SDS011;10507;52.754;13.040;2023-11-19T06:43:08;5.50;;;3.80;;
20695;SDS011;10507;52.754;13.040;2023-11-19T06:45:38;5.83;;;3.83;;
20695;SDS011;10507;52.754;13.040;2023-11-19T06:48:06;6.80;;;4.10;;
20695;SDS011;10507;52.754;13.040;2023-11-19T06:50:34;7.13;;;4.83;;
20695;SDS011;10507;52.754;13.040;2023-11-19T06:53:02;5.33;;;3.60;;
20695;SDS011;10507;52.754;13.040;2023-11-19T06:55:31;6.67;;;4.20;;
20695;SDS011;10507;52.754;13.040;2023-11-19T06:57:59;7.23;;;3.70;;
20695;SDS011;10507;52.754;13.040;2023-11-19T07:00:28;4.97;;;3.70;;
20695;SDS011;10507;52.754;13.040;2023-11-19T07:03:00;4.90;;;3.37;;
20695;SDS011;10507;52.754;13.040;2023-11-19T07:05:28;4.70;;;3.60;;
20695;SDS011;10507;52.754;13.040;2023-11-19T07:07:56;6.03;;;4.20;;
20695;SDS011;10507;52.754;13.040;2023-11-19T07:10:24;5.93;;;3.47;;
20695;SDS011;10507;52.754;13.040;2023-11-19T07:12:53;5.77;;;3.53;;
20695;SDS011;10507;52.754;13.040;2023-11-19T07:15:21;5.00;;;3.47;;
20695;SDS011;10507;52.754;13.040;2023-11-19T07:17:49;5.50;;;3.60;;
20695;SDS011;10507;52.754;13.040;2023-11-19T07:20:26;5.17;;;3.73;;
20695;SDS011;10507;52.754;13.040;2023-11-19T07:23:02;4.47;;;3.33;;
20695;SDS011;10507;52.754;13.040;2023-11-19T07:25:32;4.70;;;3.50;;
20695;SDS011;10507;52.754;13.040;2023-11-19T07:28:02;5.37;;;3.50;;
20695;SDS011;10507;52.754;13.040;2023-11-19T07:30:34;4.20;;;3.00;;
20695;SDS011;10507;52.754;13.040;2023-11-19T07:33:10;5.07;;;3.60;;
20695;SDS011;10507;52.754;13.040;2023-11-19T07:35:42;4.27;;;3.20;;
20695;SDS011;10507;52.754;13.040;2023-11-19T07:38:10;6.37;;;3.47;;
20695;SDS011;10507;52.754;13.040;2023-11-19T07:40:39;5.00;;;3.60;;
20695;SDS011;10507;52.754;13.040;2023-11-19T07:43:22;5.40;;;3.80;;
20695;SDS011;10507;52.754;13.040;2023-11-19T07:45:50;6.83;;;3.77;;
20695;SDS011;10507;52.754;13.040;2023-11-19T07:48:18;7.03;;;4.37;;
20695;SDS011;10507;52.754;13.040;2023-11-19T07:50:51;5.37;;;3.83;;
20695;SDS011;10507;52.754;13.040;2023-11-19T07:53:19;6.70;;;4.67;;
20695;SDS011;10507;52.754;13.040;2023-11-19T07:55:48;6.23;;;4.30;;
20695;SDS011;10507;52.754;13.040;2023-11-19T07:58:16;5.97;;;3.93;;
20695;SDS011;10507;52.754;13.040;2023-11-19T08:00:44;5.43;;;4.37;;
20695;SDS011;10507;52.754;13.040;2023-11-19T08:03:12;7.50;;;4.40;;
20695;SDS011;10507;52.754;13.040;2023-11-19T08:05:41;5.53;;;4.00;;
20695;SDS011;10507;52.754;13.040;2023-11-19T08:08:09;6.37;;;4.13;;
20695;SDS011;10507;52.754;13.040;2023-11-19T08:10:37;5.87;;;4.37;;
20695;SDS011;10507;52.754;13.040;2023-11-19T08:13:08;7.17;;;4.53;;
20695;SDS011;10507;52.754;13.040;2023-11-19T08:15:37;7.33;;;4.50;;
20695;SDS011;10507;52.754;13.040;2023-11-19T08:18:05;6.23;;;4.23;;
20695;SDS011;10507;52.754;13.040;2023-11-19T08:20:33;8.13;;;4.80;;
20695;SDS011;10507;52.754;13.040;2023-11-19T08:23:02;6.73;;;4.60;;
20695;SDS011;10507;52.754;13.040;2023-11-19T08:25:33;7.23;;;4.70;;
20695;SDS011;10507;52.754;13.040;2023-11-19T08:28:01;6.23;;;4.30;;
20695;SDS011;10507;52.754;13.040;2023-11-19T08:30:30;7.37;;;4.30;;
20695;SDS011;10507;52.754;13.040;2023-11-19T08:33:05;6.10;;;4.73;;
20695;SDS011;10507;52.754;13.040;2023-11-19T08:35:47;5.97;;;4.80;;
20695;SDS011;10507;52.754;13.040;2023-11-19T08:38:19;5.90;;;4.30;;
20695;SDS011;10507;52.754;13.040;2023-11-19T08:40:55;6.20;;;4.60;;
20695;SDS011;10507;52.754;13.040;2023-11-19T08:43:27;7.87;;;4.33;;
20695;SDS011;10507;52.754;13.040;2023-11-19T08:46:16;6.60;;;4.30;;
20695;SDS011;10507;52.754;13.040;2023-11-19T08:48:50;5.50;;;3.90;;
20695;SDS011;10507;52.754;13.040;2023-11-19T08:51:29;7.50;;;4.60;;
20695;SDS011;10507;52.754;13.040;2023-11-19T08:53:57;7.30;;;4.20;;
20695;SDS011;10507;52.754;13.040;2023-11-19T08:56:31;6.60;;;4.10;;
20695;SDS011;10507;52.754;13.040;2023-11-19T08:59:07;5.00;;;3.80;;
20695;SDS011;10507;52.754;13.040;2023-11-19T09:01:43;5.40;;;4.03;;
20695;SDS011;10507;52.754;13.040;2023-11-19T09:04:19;6.27;;;3.60;;
20695;SDS011;10507;52.754;13.040;2023-11-19T09:06:57;6.57;;;4.17;;
20695;SDS011;10507;52.754;13.040;2023-11-19T09:09:30;5.10;;;3.90;;
20695;SDS011;10507;52.754;13.040;2023-11-19T09:12:04;5.60;;;3.80;;
20695;SDS011;10507;52.754;13.040;2023-11-19T09:14:37;6.43;;;3.80;;
20695;SDS011;10507;52.754;13.040;2023-11-19T09:17:05;6.17;;;3.87;;
20695;SDS011;10507;52.754;13.040;2023-11-19T09:19:33;5.93;;;3.60;;
20695;SDS011;10507;52.754;13.040;2023-11-19T09:22:06;6.20;;;3.77;;
20695;SDS011;10507;52.754;13.040;2023-11-19T09:24:37;6.30;;;3.80;;
20695;SDS011;10507;52.754;13.040;2023-11-19T09:27:10;8.80;;;3.97;;
20695;SDS011;10507;52.754;13.040;2023-11-19T09:29:42;5.80;;;3.67;;
20695;SDS011;10507;52.754;13.040;2023-11-19T09:32:13;6.17;;;3.33;;
20695;SDS011;10507;52.754;13.040;2023-11-19T09:34:42;6.20;;;3.43;;
20695;SDS011;10507;52.754;13.040;2023-11-19T09:37:11;5.17;;;3.03;;
20695;SDS011;10507;52.754;13.040;2023-11-19T09:39:44;5.30;;;3.13;;
20695;SDS011;10507;52.754;13.040;2023-11-19T09:42:14;5.47;;;3.23;;
20695;SDS011;10507;52.754;13.040;2023-11-19T09:44:48;4.55;;;3.25;;
20695;SDS011;10507;52.754;13.040;2023-11-19T09:47:24;8.05;;;3.38;;
20695;SDS011;10507;52.754;13.040;2023-11-19T09:49:56;4.50;;;2.78;;
20695;SDS011;10507;52.754;13.040;2023-11-19T09:52:30;5.43;;;3.00;;
20695;SDS011;10507;52.754;13.040;2023-11-19T09:55:01;4.80;;;3.05;;
20695;SDS011;10507;52.754;13.040;2023-11-19T09:57:32;5.10;;;3.20;;
20695;SDS011;10507;52.754;13.040;2023-11-19T10:00:08;4.40;;;2.75;;
20695;SDS011;10507;52.754;13.040;2023-11-19T10:02:40;7.10;;;2.80;;
20695;SDS011;10507;52.754;13.040;2023-11-19T10:05:10;5.00;;;2.47;;
20695;SDS011;10507;52.754;13.040;2023-11-19T10:07:39;5.57;;;2.53;;
20695;SDS011;10507;52.754;13.040;2023-11-19T10:10:09;6.95;;;2.72;;
20695;SDS011;10507;52.754;13.040;2023-11-19T10:12:44;4.82;;;3.22;;
20695;SDS011;10507;52.754;13.040;2023-11-19T10:15:20;5.20;;;2.80;;
20695;SDS011;10507;52.754;13.040;2023-11-19T10:17:50;6.32;;;2.72;;
20695;SDS011;10507;52.754;13.040;2023-11-19T10:20:28;6.35;;;3.00;;
20695;SDS011;10507;52.754;13.040;2023-11-19T10:22:57;6.88;;;2.88;;
20695;SDS011;10507;52.754;13.040;2023-11-19T10:25:27;6.25;;;2.28;;
20695;SDS011;10507;52.754;13.040;2023-11-19T10:28:03;4.63;;;2.65;;
20695;SDS011;10507;52.754;13.040;2023-11-19T10:30:36;8.75;;;2.70;;
20695;SDS011;10507;52.754;13.040;2023-11-19T10:33:28;5.78;;;2.53;;
20695;SDS011;10507;52.754;13.040;2023-11-19T10:35:58;10.05;;;2.72;;
20695;SDS011;10507;52.754;13.040;2023-11-19T10:38:28;5.80;;;2.63;;
20695;SDS011;10507;52.754;13.040;2023-11-19T10:40:59;5.07;;;2.38;;
20695;SDS011;10507;52.754;13.040;2023-11-19T10:43:41;5.32;;;2.63;;
20695;SDS011;10507;52.754;13.040;2023-11-19T10:46:14;5.30;;;2.15;;
20695;SDS011;10507;52.754;13.040;2023-11-19T10:48:55;10.80;;;2.90;;
20695;SDS011;10507;52.754;13.040;2023-11-19T10:51:38;8.15;;;2.85;;
20695;SDS011;10507;52.754;13.040;2023-11-19T10:54:20;11.50;;;2.78;;
20695;SDS011;10507;52.754;13.040;2023-11-19T10:57:03;14.30;;;3.40;;
20695;SDS011;10507;52.754;13.040;2023-11-19T10:59:36;6.70;;;2.47;;
20695;SDS011;10507;52.754;13.040;2023-11-19T11:02:11;8.00;;;2.85;;
20695;SDS011;10507;52.754;13.040;2023-11-19T11:04:51;13.40;;;2.80;;
20695;SDS011;10507;52.754;13.040;2023-11-19T11:07:21;9.55;;;2.83;;
20695;SDS011;10507;52.754;13.040;2023-11-19T11:10:02;11.80;;;3.67;;
20695;SDS011;10507;52.754;13.040;2023-11-19T11:12:38;7.47;;;2.47;;
20695;SDS011;10507;52.754;13.040;2023-11-19T11:15:10;8.45;;;2.40;;
20695;SDS011;10507;52.754;13.040;2023-11-19T11:17:40;8.90;;;2.63;;
20695;SDS011;10507;52.754;13.040;2023-11-19T11:20:18;8.20;;;2.25;;
20695;SDS011;10507;52.754;13.040;2023-11-19T11:23:09;9.25;;;2.85;;
20695;SDS011;10507;52.754;13.040;2023-11-19T11:26:02;10.65;;;2.78;;
20695;SDS011;10507;52.754;13.040;2023-11-19T11:28:48;9.07;;;2.67;;
20695;SDS011;10507;52.754;13.040;2023-11-19T11:31:36;13.00;;;3.28;;
20695;SDS011;10507;52.754;13.040;2023-11-19T11:34:35;9.95;;;3.55;;
20695;SDS011;10507;52.754;13.040;2023-11-19T11:37:25;11.18;;;3.50;;
20695;SDS011;10507;52.754;13.040;2023-11-19T11:39:58;18.23;;;3.53;;
20695;SDS011;10507;52.754;13.040;2023-11-19T11:42:36;16.38;;;3.58;;
20695;SDS011;10507;52.754;13.040;2023-11-19T11:45:05;14.13;;;3.65;;
20695;SDS011;10507;52.754;13.040;2023-11-19T11:50:50;13.55;;;3.80;;
20695;SDS011;10507;52.754;13.040;2023-11-19T11:53:30;16.27;;;3.55;;
20695;SDS011;10507;52.754;13.040;2023-11-19T11:56:10;13.50;;;3.13;;
20695;SDS011;10507;52.754;13.040;2023-11-19T11:58:39;17.42;;;4.22;;
20695;SDS011;10507;52.754;13.040;2023-11-19T12:01:14;13.50;;;3.60;;
20695;SDS011;10507;52.754;13.040;2023-11-19T12:03:55;12.38;;;2.97;;
20695;SDS011;10507;52.754;13.040;2023-11-19T12:06:26;15.63;;;3.55;;
20695;SDS011;10507;52.754;13.040;2023-11-19T12:08:59;14.05;;;4.30;;
20695;SDS011;10507;52.754;13.040;2023-11-19T12:11:30;13.05;;;3.45;;
20695;SDS011;10507;52.754;13.040;2023-11-19T12:14:03;11.23;;;3.25;;
20695;SDS011;10507;52.754;13.040;2023-11-19T12:16:37;11.63;;;3.65;;
20695;SDS011;10507;52.754;13.040;2023-11-19T12:19:07;11.27;;;2.50;;
20695;SDS011;10507;52.754;13.040;2023-11-19T12:21:36;6.65;;;2.03;;
20695;SDS011;10507;52.754;13.040;2023-11-19T12:24:05;10.82;;;2.50;;
20695;SDS011;10507;52.754;13.040;2023-11-19T12:26:37;8.63;;;2.30;;
20695;SDS011;10507;52.754;13.040;2023-11-19T12:29:08;8.52;;;2.50;;
20695;SDS011;10507;52.754;13.040;2023-11-19T12:31:43;12.88;;;3.35;;
20695;SDS011;10507;52.754;13.040;2023-11-19T12:34:34;14.82;;;2.97;;
20695;SDS011;10507;52.754;13.040;2023-11-19T12:37:13;11.30;;;2.97;;
20695;SDS011;10507;52.754;13.040;2023-11-19T12:39:46;19.42;;;4.00;;
20695;SDS011;10507;52.754;13.040;2023-11-19T12:42:15;12.13;;;3.03;;
20695;SDS011;10507;52.754;13.040;2023-11-19T12:44:54;14.05;;;3.20;;
20695;SDS011;10507;52.754;13.040;2023-11-19T12:47:24;11.23;;;2.90;;
20695;SDS011;10507;52.754;13.040;2023-11-19T12:49:57;12.27;;;2.78;;
20695;SDS011;10507;52.754;13.040;2023-11-19T12:52:30;11.50;;;3.25;;
20695;SDS011;10507;52.754;13.040;2023-11-19T12:57:56;15.48;;;3.35;;
20695;SDS011;10507;52.754;13.040;2023-11-19T13:00:30;17.55;;;2.80;;
20695;SDS011;10507;52.754;13.040;2023-11-19T13:02:59;15.75;;;3.45;;
20695;SDS011;10507;52.754;13.040;2023-11-19T13:05:30;17.05;;;3.38;;
20695;SDS011;10507;52.754;13.040;2023-11-19T13:08:06;14.35;;;3.63;;
20695;SDS011;10507;52.754;13.040;2023-11-19T13:10:49;12.55;;;2.80;;
20695;SDS011;10507;52.754;13.040;2023-11-19T13:13:29;10.90;;;2.72;;
20695;SDS011;10507;52.754;13.040;2023-11-19T13:16:02;16.60;;;3.50;;
20695;SDS011;10507;52.754;13.040;2023-11-19T13:18:33;20.88;;;3.80;;
20695;SDS011;10507;52.754;13.040;2023-11-19T13:21:10;11.02;;;2.70;;
20695;SDS011;10507;52.754;13.040;2023-11-19T13:23:49;17.42;;;3.33;;
20695;SDS011;10507;52.754;13.040;2023-11-19T13:26:23;16.00;;;3.40;;
20695;SDS011;10507;52.754;13.040;2023-11-19T13:29:01;12.18;;;2.97;;
20695;SDS011;10507;52.754;13.040;2023-11-19T13:31:32;15.40;;;3.80;;
20695;SDS011;10507;52.754;13.040;2023-11-19T13:34:01;12.85;;;2.63;;
20695;SDS011;10507;52.754;13.040;2023-11-19T13:36:34;12.80;;;3.00;;
20695;SDS011;10507;52.754;13.040;2023-11-19T13:39:05;14.68;;;2.72;;
20695;SDS011;10507;52.754;13.040;2023-11-19T13:41:33;16.58;;;3.33;;
20695;SDS011;10507;52.754;13.040;2023-11-19T13:44:02;14.65;;;4.28;;
20695;SDS011;10507;52.754;13.040;2023-11-19T13:46:30;15.70;;;2.60;;
20695;SDS011;10507;52.754;13.040;2023-11-19T13:48:59;16.20;;;3.13;;
20695;SDS011;10507;52.754;13.040;2023-11-19T13:51:33;20.70;;;4.72;;
20695;SDS011;10507;52.754;13.040;2023-11-19T13:54:01;14.38;;;3.35;;
20695;SDS011;10507;52.754;13.040;2023-11-19T13:56:30;14.73;;;3.28;;
20695;SDS011;10507;52.754;13.040;2023-11-19T13:58:58;11.98;;;2.97;;
20695;SDS011;10507;52.754;13.040;2023-11-19T14:01:27;14.23;;;3.55;;
20695;SDS011;10507;52.754;13.040;2023-11-19T14:04:00;14.30;;;4.30;;
20695;SDS011;10507;52.754;13.040;2023-11-19T14:06:28;16.95;;;3.35;;
20695;SDS011;10507;52.754;13.040;2023-11-19T14:09:01;17.75;;;4.32;;
20695;SDS011;10507;52.754;13.040;2023-11-19T14:11:35;21.42;;;3.63;;
20695;SDS011;10507;52.754;13.040;2023-11-19T14:14:04;13.45;;;3.03;;
20695;SDS011;10507;52.754;13.040;2023-11-19T14:16:32;18.15;;;3.30;;
20695;SDS011;10507;52.754;13.040;2023-11-19T14:19:01;16.67;;;3.30;;
20695;SDS011;10507;52.754;13.040;2023-11-19T14:21:31;19.27;;;3.70;;
20695;SDS011;10507;52.754;13.040;2023-11-19T14:24:07;16.50;;;3.30;;
20695;SDS011;10507;52.754;13.040;2023-11-19T14:26:36;12.32;;;3.17;;
20695;SDS011;10507;52.754;13.040;2023-11-19T14:29:07;12.48;;;3.35;;
20695;SDS011;10507;52.754;13.040;2023-11-19T14:31:40;14.68;;;3.65;;
20695;SDS011;10507;52.754;13.040;2023-11-19T14:34:13;18.17;;;4.05;;
20695;SDS011;10507;52.754;13.040;2023-11-19T14:36:42;15.90;;;3.60;;
20695;SDS011;10507;52.754;13.040;2023-11-19T14:39:13;21.10;;;4.47;;
20695;SDS011;10507;52.754;13.040;2023-11-19T14:41:42;17.45;;;3.80;;
20695;SDS011;10507;52.754;13.040;2023-11-19T14:44:13;21.45;;;3.53;;
20695;SDS011;10507;52.754;13.040;2023-11-19T14:46:43;14.20;;;3.05;;
20695;SDS011;10507;52.754;13.040;2023-11-19T14:49:19;16.90;;;3.38;;
20695;SDS011;10507;52.754;13.040;2023-11-19T14:51:47;24.00;;;3.78;;
20695;SDS011;10507;52.754;13.040;2023-11-19T14:54:17;19.02;;;3.88;;
20695;SDS011;10507;52.754;13.040;2023-11-19T14:56:48;15.45;;;3.80;;
20695;SDS011;10507;52.754;13.040;2023-11-19T14:59:16;17.27;;;3.88;;
20695;SDS011;10507;52.754;13.040;2023-11-19T15:01:44;13.00;;;3.20;;
20695;SDS011;10507;52.754;13.040;2023-11-19T15:04:14;21.50;;;4.07;;